Miami, Florida
Traffic Map
Current Weather Conditions
Miami, Florida
Few Clouds
Few Clouds
86°
Feels Like: 94°
Wind Chill: 86° Ceiling: Unl
Heat Index: 94° Visibility: 10mi
Dew Point: 74° Wind: 16mph
Humidity: 67% Direction: 70° (ENE)
Pressure: 29.8in Gusts: 0mph
Raw Report DataKOPF 232153Z 07014KT 10SM FEW034 FEW100 30/23 A2980 RMK AO2 WSHFT 2107 SLP091 T03000233
Traffic Incident Summary
Active as of:
Severity:
Category:
InformationThere was an issue retrieving the traffic information for this location. Please try a different location or try again shortly.
Advertisements